Time;durP1;ratioP1;P1;durP2;ratioP2;P2;SDS_P1;SDS_P2;PMS_P1;PMS_P2;Temp;Humidity;BMP_temperature;BMP_pressure;BME280_temperature;BME280_humidity;BME280_pressure;Samples;Min_cycle;Max_cycle;Signal;HPM_P1;HPM_P2
2023/09/09 00:02:08;;;;;;;4.60;3.57;;;;;;;19.05;67.30;97442.03;5086716;28;20710;-73
2023/09/09 00:04:35;;;;;;;7.07;3.63;;;;;;;18.56;69.05;97434.25;5087005;28;20203;-75
2023/09/09 00:07:03;;;;;;;6.20;3.70;;;;;;;18.20;69.92;97418.44;5086612;28;20191;-75
2023/09/09 00:09:30;;;;;;;5.23;3.57;;;;;;;18.31;69.90;97433.41;5087106;28;20183;-73
2023/09/09 00:11:58;;;;;;;5.40;3.63;;;;;;;18.08;70.05;97431.53;5086554;28;20625;-73
2023/09/09 00:14:25;;;;;;;6.07;3.40;;;;;;;17.60;71.28;97409.53;5068640;28;20577;-76
2023/09/09 00:16:53;;;;;;;8.93;4.10;;;;;;;17.72;70.99;97422.66;5086789;28;20657;-77
2023/09/09 00:19:21;;;;;;;4.80;4.00;;;;;;;17.61;71.62;97433.03;5086667;28;20215;-73
2023/09/09 00:21:49;;;;;;;5.60;3.67;;;;;;;17.53;71.56;97424.00;5087381;28;20244;-76
2023/09/09 00:24:17;;;;;;;6.67;3.40;;;;;;;17.55;71.88;97425.59;5068857;28;20655;-73
2023/09/09 00:26:44;;;;;;;5.33;3.53;;;;;;;17.45;71.97;97424.50;5090856;28;20199;-74
2023/09/09 00:29:11;;;;;;;7.33;3.90;;;;;;;17.44;71.55;97414.09;5072591;28;20696;-73
2023/09/09 00:31:38;;;;;;;5.30;3.57;;;;;;;17.64;71.25;97422.34;5072545;28;20219;-73
2023/09/09 00:34:05;;;;;;;4.67;3.63;;;;;;;17.68;70.90;97412.50;5072580;28;20191;-74
2023/09/09 00:36:32;;;;;;;6.87;3.43;;;;;;;17.59;70.87;97424.44;5072512;28;20193;-73
2023/09/09 00:39:00;;;;;;;6.23;3.80;;;;;;;17.44;71.13;97421.97;5072820;28;20247;-73
2023/09/09 00:41:27;;;;;;;4.30;3.30;;;;;;;17.34;71.61;97410.44;5072228;28;20273;-78
2023/09/09 00:43:54;;;;;;;6.33;3.73;;;;;;;17.38;71.26;97396.19;5072411;28;20231;-72
2023/09/09 00:46:22;;;;;;;9.17;4.40;;;;;;;17.73;70.54;97395.53;5090459;28;20204;-77
2023/09/09 00:48:50;;;;;;;6.73;3.47;;;;;;;18.02;69.82;97416.25;5090616;28;20190;-80
2023/09/09 00:51:18;;;;;;;8.50;3.63;;;;;;;18.15;69.38;97411.84;5090513;28;20226;-77
2023/09/09 00:53:45;;;;;;;4.67;3.40;;;;;;;18.35;68.53;97408.66;5090573;28;20689;-79
2023/09/09 00:56:12;;;;;;;5.00;3.50;;;;;;;18.24;69.23;97413.78;5090840;28;20533;-78
2023/09/09 00:58:39;;;;;;;7.63;4.20;;;;;;;18.11;69.53;97405.97;5055437;28;20218;-77
2023/09/09 01:01:07;;;;;;;6.97;3.40;;;;;;;18.23;69.27;97397.25;5072445;28;20780;-82
2023/09/09 01:03:34;;;;;;;4.13;3.43;;;;;;;18.30;69.20;97408.16;5090380;28;20191;-79
2023/09/09 01:06:03;;;;;;;6.47;3.93;;;;;;;18.38;68.87;97408.44;5072110;28;20251;-74
2023/09/09 01:08:30;;;;;;;6.27;3.93;;;;;;;18.20;69.74;97396.59;5090430;28;20252;-76
2023/09/09 01:10:58;;;;;;;7.73;3.90;;;;;;;18.16;69.25;97396.00;5071700;28;20245;-78
2023/09/09 01:13:25;;;;;;;6.60;4.20;;;;;;;18.18;68.99;97395.88;5072004;28;20289;-81
2023/09/09 01:15:53;;;;;;;5.50;3.80;;;;;;;17.99;70.44;97406.00;5071696;28;20199;-79
2023/09/09 01:18:21;;;;;;;7.23;3.40;;;;;;;18.03;70.51;97383.88;5072583;28;20186;-78
2023/09/09 01:21:13;;;;;;;4.77;3.57;;;;;;;18.18;69.04;97388.00;5071525;28;20235;-79
2023/09/09 01:23:40;;;;;;;6.87;4.03;;;;;;;18.30;69.13;97384.56;5078629;28;20226;-79
2023/09/09 01:26:08;;;;;;;5.83;3.97;;;;;;;18.22;70.06;97397.34;5089993;28;20194;-78
2023/09/09 01:28:36;;;;;;;7.20;3.77;;;;;;;18.17;70.19;97402.94;5055069;28;20198;-78
2023/09/09 01:31:03;;;;;;;7.57;4.30;;;;;;;17.93;70.63;97388.06;5090107;28;20255;-78
2023/09/09 01:33:31;;;;;;;6.00;4.30;;;;;;;17.96;71.07;97387.84;5055026;28;20198;-78
2023/09/09 01:35:58;;;;;;;7.47;4.10;;;;;;;17.99;70.23;97382.41;5099925;28;20193;-78
2023/09/09 01:38:25;;;;;;;5.90;4.20;;;;;;;17.51;70.52;97337.69;5102396;28;20191;-79
2023/09/09 01:40:53;;;;;;;7.37;4.07;;;;;;;17.85;70.53;97373.72;5074765;28;20693;-79
2023/09/09 01:43:21;;;;;;;4.80;4.30;;;;;;;17.93;69.88;97375.78;5072331;28;20245;-80
2023/09/09 01:45:49;;;;;;;6.43;4.07;;;;;;;17.83;70.35;97375.59;5071888;28;20189;-81
2023/09/09 01:48:16;;;;;;;8.10;4.13;;;;;;;17.80;70.35;97385.47;5071810;28;20605;-80
2023/09/09 01:50:45;;;;;;;8.40;4.37;;;;;;;17.92;70.25;97378.53;5071221;28;20242;-79
2023/09/09 01:53:12;;;;;;;4.93;3.30;;;;;;;17.53;71.06;97364.63;5089944;28;20187;-78
2023/09/09 01:55:39;;;;;;;5.10;3.70;;;;;;;17.15;72.46;97379.41;5070962;28;20710;-79
2023/09/09 01:58:06;;;;;;;5.40;3.80;;;;;;;16.81;74.15;97367.72;5071154;28;20223;-79
2023/09/09 02:00:34;;;;;;;5.77;3.70;;;;;;;16.69;75.48;97370.28;5054031;28;20292;-80
2023/09/09 02:03:01;;;;;;;5.23;3.80;;;;;;;16.76;75.60;97371.56;5088960;28;20193;-77
2023/09/09 02:05:32;;;;;;;4.70;3.80;;;;;;;16.77;75.83;97378.47;5089395;28;20275;-81
2023/09/09 02:07:59;;;;;;;7.50;3.83;;;;;;;16.63;75.96;97371.50;5070528;28;20204;-79
2023/09/09 02:10:26;;;;;;;7.83;3.70;;;;;;;16.79;75.23;97374.84;5070789;28;20197;-77
2023/09/09 02:12:53;;;;;;;5.10;4.53;;;;;;;16.84;74.84;97362.28;5088782;28;20200;-80
2023/09/09 02:15:20;;;;;;;5.07;3.57;;;;;;;16.99;74.12;97370.91;5037087;28;20587;-80
2023/09/09 02:17:47;;;;;;;7.40;3.83;;;;;;;16.76;75.00;97361.94;5088707;28;20733;-78
2023/09/09 02:20:14;;;;;;;7.57;4.57;;;;;;;16.69;75.53;97365.06;5088413;28;20645;-80
2023/09/09 02:22:42;;;;;;;6.20;4.53;;;;;;;16.82;74.77;97371.16;5088981;28;20181;-81
2023/09/09 02:25:09;;;;;;;8.73;4.00;;;;;;;16.72;75.23;97372.69;5088533;28;20254;-81
2023/09/09 02:27:36;;;;;;;5.60;4.37;;;;;;;16.59;75.03;97370.03;5088669;28;20242;-81
2023/09/09 02:30:04;;;;;;;5.23;3.83;;;;;;;16.62;75.08;97367.22;5088491;28;20213;-78
2023/09/09 02:32:32;;;;;;;6.97;3.97;;;;;;;16.36;75.73;97377.66;5070350;28;20323;-75
2023/09/09 02:34:59;;;;;;;5.33;3.70;;;;;;;15.81;77.67;97375.00;5053519;28;20197;-76
2023/09/09 02:37:28;;;;;;;7.03;3.60;;;;;;;15.97;77.40;97363.50;5070233;28;20248;-75
2023/09/09 02:39:55;;;;;;;7.23;4.17;;;;;;;15.94;76.86;97345.44;5070133;28;20580;-73
2023/09/09 02:42:23;;;;;;;7.33;4.30;;;;;;;15.98;77.34;97359.13;5070101;28;20571;-82
2023/09/09 02:44:51;;;;;;;5.70;3.80;;;;;;;15.27;76.29;97212.16;5070337;28;20216;-75
2023/09/09 02:47:19;;;;;;;4.90;3.77;;;;;;;16.20;76.26;97360.31;5069318;28;20276;-77
2023/09/09 02:49:50;;;;;;;7.20;4.00;;;;;;;16.10;77.16;97353.97;5053225;28;20681;-79
2023/09/09 02:52:20;;;;;;;6.03;4.10;;;;;;;16.17;76.44;97354.44;5088025;28;20745;-76
2023/09/09 02:54:48;;;;;;;6.00;3.73;;;;;;;16.38;76.21;97360.94;5069724;28;20775;-72
2023/09/09 02:57:15;;;;;;;8.27;4.70;;;;;;;16.27;76.67;97359.00;5088297;28;20195;-73
2023/09/09 02:59:42;;;;;;;6.67;3.90;;;;;;;16.01;77.89;97351.94;5069546;28;20185;-73
2023/09/09 03:02:12;;;;;;;7.33;4.23;;;;;;;16.06;77.58;97355.13;5070082;28;20208;-76
2023/09/09 03:04:39;;;;;;;7.27;4.53;;;;;;;15.92;78.47;97355.13;5088403;28;20522;-72
2023/09/09 03:07:07;;;;;;;9.23;4.90;;;;;;;15.96;78.69;97353.16;5069495;28;20201;-76
2023/09/09 03:09:36;;;;;;;8.83;4.37;;;;;;;15.82;79.35;97347.97;5088205;28;20239;-74
2023/09/09 03:12:05;;;;;;;8.47;4.97;;;;;;;16.07;78.22;97354.16;5069326;28;20690;-77
2023/09/09 03:14:32;;;;;;;7.67;4.33;;;;;;;16.28;77.66;97355.44;5069905;28;20679;-82
2023/09/09 03:17:00;;;;;;;6.43;5.37;;;;;;;16.36;76.71;97360.19;5087471;28;20586;-74
2023/09/09 03:19:28;;;;;;;7.77;6.13;;;;;;;15.99;79.06;97353.81;5069708;28;20253;-78
2023/09/09 03:21:57;;;;;;;10.80;5.60;;;;;;;16.22;78.01;97350.59;5087581;28;20184;-75
2023/09/09 03:24:24;;;;;;;8.70;6.03;;;;;;;16.30;77.03;97337.88;5069524;28;20688;-79
2023/09/09 03:26:52;;;;;;;10.57;5.33;;;;;;;16.04;77.67;97332.63;5087395;28;20193;-74
2023/09/09 03:29:20;;;;;;;7.70;5.90;;;;;;;15.62;80.21;97341.31;5087260;28;20733;-76
2023/09/09 03:31:48;;;;;;;8.80;5.43;;;;;;;15.78;80.62;97346.47;5069260;28;20231;-79
2023/09/09 03:34:17;;;;;;;8.63;5.33;;;;;;;15.98;79.96;97343.47;5069386;28;20217;-74
2023/09/09 03:36:44;;;;;;;9.13;5.87;;;;;;;15.86;80.13;97339.84;5087351;28;20777;-75
2023/09/09 03:39:11;;;;;;;8.20;6.30;;;;;;;15.98;79.50;97346.91;5087374;28;20193;-76
2023/09/09 03:41:39;;;;;;;6.57;5.63;;;;;;;15.90;79.98;97351.78;5069027;28;20189;-80
2023/09/09 03:44:06;;;;;;;10.10;5.93;;;;;;;15.81;79.71;97341.88;5068855;28;20687;-78
2023/09/09 03:46:34;;;;;;;8.30;6.37;;;;;;;15.67;80.15;97335.84;5087017;28;20636;-76
2023/09/09 03:49:01;;;;;;;7.70;6.17;;;;;;;15.48;81.29;97338.72;5087526;28;20188;-75
2023/09/09 03:51:28;;;;;;;8.00;5.80;;;;;;;15.35;82.77;97346.41;5069085;28;20310;-75
2023/09/09 03:53:56;;;;;;;8.20;5.87;;;;;;;15.54;81.62;97342.75;5069219;28;20213;-73
2023/09/09 03:56:23;;;;;;;6.47;5.20;;;;;;;15.66;80.68;97334.97;5068829;28;20656;-74
2023/09/09 03:58:50;;;;;;;9.23;5.47;;;;;;;15.69;79.21;97302.63;5068178;28;20245;-80
2023/09/09 04:01:18;;;;;;;10.13;6.10;;;;;;;16.09;77.95;97357.50;5086494;28;20275;-80
2023/09/09 04:03:46;;;;;;;6.97;5.50;;;;;;;16.08;77.39;97355.84;5087061;28;20905;-82
2023/09/09 04:06:17;;;;;;;7.13;4.97;;;;;;;15.95;77.45;97339.25;5069081;28;20274;-82
2023/09/09 04:08:45;;;;;;;7.50;5.03;;;;;;;15.98;77.50;97354.75;5068337;28;20184;-74
2023/09/09 04:11:13;;;;;;;7.93;5.50;;;;;;;15.93;77.87;97351.56;5068879;28;20220;-74
2023/09/09 04:13:41;;;;;;;8.77;5.10;;;;;;;15.95;77.47;97336.66;5052140;28;20679;-78
2023/09/09 04:16:09;;;;;;;6.60;4.97;;;;;;;16.26;76.81;97349.47;5068710;28;20664;-75
2023/09/09 04:18:37;;;;;;;7.60;5.13;;;;;;;15.78;78.40;97357.75;5068752;28;20184;-77
2023/09/09 04:21:16;;;;;;;10.40;5.80;;;;;;;15.78;78.21;97355.16;5068532;28;20193;-79
2023/09/09 04:23:43;;;;;;;7.53;4.93;;;;;;;15.68;78.77;97361.88;5087012;28;20197;-81
2023/09/09 04:26:11;;;;;;;9.07;5.07;;;;;;;15.61;79.42;97371.00;5068282;28;20201;-79
2023/09/09 04:28:39;;;;;;;6.97;5.47;;;;;;;15.54;79.95;97361.03;5068910;28;20752;-83
2023/09/09 04:31:07;;;;;;;7.43;4.77;;;;;;;15.33;81.49;97350.06;5068608;28;20263;-82
2023/09/09 04:33:39;;;;;;;7.60;4.83;;;;;;;15.40;81.65;97367.88;5069280;28;20196;-85
2023/09/09 04:36:08;;;;;;;9.30;5.70;;;;;;;15.58;81.25;97372.97;5067838;28;20199;-80
2023/09/09 04:38:35;;;;;;;7.27;4.90;;;;;;;15.79;79.94;97356.81;5052194;28;20281;-82
2023/09/09 04:41:04;;;;;;;8.77;5.10;;;;;;;15.82;80.24;97369.69;5051661;28;20213;-76
2023/09/09 04:43:32;;;;;;;12.27;5.30;;;;;;;15.89;79.40;97373.59;5051294;28;20254;-81
2023/09/09 04:45:59;;;;;;;7.20;4.93;;;;;;;16.14;78.26;97355.47;5068535;28;20195;-81
2023/09/09 04:48:27;;;;;;;8.27;4.97;;;;;;;16.34;77.85;97369.06;5086371;28;20207;-79
2023/09/09 04:50:54;;;;;;;7.27;5.60;;;;;;;16.23;78.12;97370.59;5051938;28;20189;-81
2023/09/09 04:53:21;;;;;;;7.07;5.23;;;;;;;16.28;77.69;97367.66;5068317;28;20238;-79
2023/09/09 04:55:48;;;;;;;8.83;5.83;;;;;;;16.43;76.34;97374.53;5061952;28;20197;-78
2023/09/09 04:58:16;;;;;;;8.87;5.63;;;;;;;16.84;75.27;97383.19;5054591;28;20212;-78
2023/09/09 05:00:43;;;;;;;6.17;5.23;;;;;;;16.76;74.85;97375.00;5059660;28;20178;-78
2023/09/09 05:03:11;;;;;;;9.77;5.00;;;;;;;16.69;75.17;97385.97;5049844;28;20192;-72
2023/09/09 05:05:38;;;;;;;7.07;4.83;;;;;;;16.83;74.92;97376.31;5068332;28;20616;-79
2023/09/09 05:08:06;;;;;;;8.60;4.83;;;;;;;17.24;72.96;97363.09;5067708;28;20241;-73
2023/09/09 05:10:40;;;;;;;8.07;4.97;;;;;;;17.75;71.32;97369.22;5051840;28;20204;-81
2023/09/09 05:13:08;;;;;;;9.13;5.40;;;;;;;17.97;69.94;97365.94;5072764;28;20772;-75
2023/09/09 05:15:37;;;;;;;8.83;5.37;;;;;;;17.81;69.99;97364.38;5079177;28;20190;-80
2023/09/09 05:18:04;;;;;;;9.17;5.23;;;;;;;18.04;69.76;97383.75;5070197;28;20188;-77
2023/09/09 05:20:33;;;;;;;10.60;4.80;;;;;;;18.04;69.12;97389.00;5023796;28;20192;-80
2023/09/09 05:23:03;;;;;;;7.33;4.90;;;;;;;18.06;69.76;97379.25;5051816;28;20243;-76
2023/09/09 05:25:30;;;;;;;8.07;4.60;;;;;;;17.93;69.47;97378.41;5068475;28;20182;-79
2023/09/09 05:27:57;;;;;;;9.57;5.40;;;;;;;18.11;69.59;97378.91;5069194;28;20187;-78
2023/09/09 05:30:24;;;;;;;6.53;4.17;;;;;;;18.12;69.44;97375.34;5034579;28;20196;-81
2023/09/09 05:32:51;;;;;;;12.10;5.00;;;;;;;18.00;69.74;97381.44;5034530;28;20232;-76
2023/09/09 05:35:19;;;;;;;7.37;4.47;;;;;;;18.05;70.27;97371.50;5034312;28;20673;-82
2023/09/09 05:37:46;;;;;;;8.67;4.53;;;;;;;18.49;68.40;97356.91;5068893;28;20664;-79
2023/09/09 05:40:14;;;;;;;14.13;4.70;;;;;;;18.81;67.28;97372.09;5068093;28;20189;-78
2023/09/09 05:42:41;;;;;;;5.23;4.00;;;;;;;18.65;68.10;97370.59;5069071;28;20192;-75
2023/09/09 05:45:09;;;;;;;6.63;4.33;;;;;;;18.63;68.62;97366.41;5069304;28;20211;-78
2023/09/09 05:47:37;;;;;;;5.03;3.60;;;;;;;18.38;69.45;97366.47;5067825;28;20674;-74
2023/09/09 05:50:05;;;;;;;7.03;4.00;;;;;;;18.47;69.72;97356.19;5051079;28;20414;-75
2023/09/09 05:52:33;;;;;;;6.13;3.93;;;;;;;18.81;68.87;97365.09;5050741;28;20271;-81
2023/09/09 05:55:01;;;;;;;5.73;3.90;;;;;;;18.51;68.59;97346.31;5053223;28;20188;-80
2023/09/09 05:57:29;;;;;;;6.80;4.33;;;;;;;18.90;67.41;97372.25;5078270;28;20211;-75
2023/09/09 05:59:57;;;;;;;6.83;3.63;;;;;;;19.17;67.29;97358.88;5072849;28;20221;-72
2023/09/09 06:02:24;;;;;;;5.27;3.70;;;;;;;19.14;66.50;97367.84;5069710;28;20264;-75
2023/09/09 06:04:52;;;;;;;8.27;4.87;;;;;;;19.58;66.48;97369.75;5106902;28;20191;-74
2023/09/09 06:07:20;;;;;;;9.20;4.00;;;;;;;19.75;65.45;97360.56;5074507;28;20263;-83
2023/09/09 06:09:47;;;;;;;4.93;3.63;;;;;;;19.94;65.79;97359.03;5073581;28;20267;-78
2023/09/09 06:12:14;;;;;;;4.83;3.30;;;;;;;20.05;65.49;97363.47;5056217;28;20328;-82
2023/09/09 06:14:42;;;;;;;4.63;2.87;;;;;;;19.97;63.74;97348.25;5061590;28;20390;-78
2023/09/09 06:17:09;;;;;;;4.80;3.57;;;;;;;20.41;63.51;97363.19;5051382;28;20686;-77
2023/09/09 06:19:37;;;;;;;9.13;4.60;;;;;;;20.57;62.89;97353.09;5068441;28;20233;-74
2023/09/09 06:22:05;;;;;;;5.47;3.07;;;;;;;20.90;59.88;97367.94;5016054;28;20291;-78
2023/09/09 06:24:32;;;;;;;6.10;3.30;;;;;;;20.71;59.86;97358.09;5050927;28;20197;-83
2023/09/09 06:27:02;;;;;;;22.20;4.60;;;;;;;20.96;59.44;97368.28;5050599;28;20192;-79
2023/09/09 06:29:29;;;;;;;6.97;3.60;;;;;;;21.31;57.66;97343.50;5034425;28;20202;-78
2023/09/09 06:31:59;;;;;;;6.10;3.27;;;;;;;21.58;56.85;97352.53;5034253;28;20654;-74
2023/09/09 06:34:26;;;;;;;8.00;3.60;;;;;;;21.87;55.45;97360.63;5051761;28;20185;-76
2023/09/09 06:36:54;;;;;;;10.67;3.47;;;;;;;22.02;54.20;97371.66;5035372;28;20732;-76
2023/09/09 06:39:21;;;;;;;7.73;3.47;;;;;;;22.05;53.61;97371.41;5034893;28;20759;-75
2023/09/09 06:41:50;;;;;;;5.30;2.90;;;;;;;22.18;52.04;97370.22;5069112;28;20188;-76
2023/09/09 06:44:17;;;;;;;7.47;3.43;;;;;;;22.38;51.72;97361.38;5068823;28;20235;-75
2023/09/09 06:46:44;;;;;;;4.60;2.70;;;;;;;22.47;49.33;97376.41;5056293;28;20314;-74
2023/09/09 06:49:12;;;;;;;5.97;2.53;;;;;;;22.44;49.05;97379.31;5058316;28;20192;-74
2023/09/09 06:51:40;;;;;;;24.57;8.87;;;;;;;22.62;46.77;97361.91;5074124;28;20192;-74
2023/09/09 06:54:07;;;;;;;8.17;3.00;;;;;;;22.83;46.05;97364.44;5071681;28;20284;-78
2023/09/09 06:56:34;;;;;;;5.33;3.53;;;;;;;22.84;43.97;97370.53;5054314;28;20620;-75
2023/09/09 06:59:01;;;;;;;9.60;2.60;;;;;;;23.12;44.11;97377.66;5106008;28;20192;-79
2023/09/09 07:01:30;;;;;;;8.13;2.83;;;;;;;23.16;43.95;97374.56;5090638;28;20190;-78
2023/09/09 07:03:58;;;;;;;8.00;2.60;;;;;;;23.26;41.06;97379.88;5091276;28;20196;-74
2023/09/09 07:07:06;;;;;;;7.30;2.80;;;;;;;23.37;39.29;97387.66;5074698;28;20227;-79
2023/09/09 07:10:26;;;;;;;4.43;1.97;;;;;;;23.50;38.99;97380.28;5033601;28;20195;-78
2023/09/09 07:13:48;;;;;;;3.80;1.80;;;;;;;23.53;37.57;97377.38;5051773;28;20228;-74
2023/09/09 07:17:09;;;;;;;6.07;2.87;;;;;;;23.86;34.57;97368.94;5036590;28;20197;-78
2023/09/09 07:20:31;;;;;;;4.83;2.10;;;;;;;23.69;33.41;97364.41;5049188;28;20305;-74
2023/09/09 07:23:51;;;;;;;31.60;11.73;;;;;;;23.92;33.54;97371.03;5049405;28;20283;-74
2023/09/09 07:27:12;;;;;;;15.73;7.73;;;;;;;24.01;31.90;97356.06;5048191;28;20286;-73
2023/09/09 07:30:33;;;;;;;65.07;22.90;;;;;;;24.29;32.43;97367.56;5034721;28;20250;-74
2023/09/09 07:33:54;;;;;;;10.87;4.23;;;;;;;24.12;30.69;97364.69;5053405;28;20230;-74
2023/09/09 07:36:35;;;;;;;11.03;4.47;;;;;;;24.15;30.25;97374.16;5078332;28;20498;-73
2023/09/09 07:39:03;;;;;;;26.00;10.40;;;;;;;23.95;30.29;97370.72;5066738;28;20241;-74
2023/09/09 07:41:30;;;;;;;91.90;38.03;;;;;;;24.18;32.11;97365.91;5073590;28;20266;-75
2023/09/09 07:43:59;;;;;;;30.83;12.80;;;;;;;24.35;30.74;97362.50;5095480;28;20235;-80
2023/09/09 07:46:28;;;;;;;12.47;6.37;;;;;;;24.45;30.25;97367.75;5074042;28;20198;-80
2023/09/09 07:48:55;;;;;;;7.77;3.10;;;;;;;24.52;30.05;97372.31;5092854;28;20201;-83
2023/09/09 07:51:23;;;;;;;23.50;11.07;;;;;;;24.57;29.09;97358.59;5096955;28;20912;-74
2023/09/09 07:53:52;;;;;;;32.90;13.50;;;;;;;24.59;29.03;97338.94;5042686;28;20227;-80
2023/09/09 07:56:19;;;;;;;19.23;7.47;;;;;;;24.71;28.28;97336.94;5072999;28;20254;-83
2023/09/09 07:58:46;;;;;;;53.47;23.73;;;;;;;24.82;29.37;97344.66;5091883;28;20196;-81
2023/09/09 08:01:14;;;;;;;13.50;5.10;;;;;;;24.75;28.53;97346.28;5069565;28;20251;-81
2023/09/09 08:03:42;;;;;;;6.17;2.77;;;;;;;24.65;27.84;97348.09;5054484;28;20281;-81
2023/09/09 08:06:09;;;;;;;10.23;5.67;;;;;;;24.71;28.05;97358.94;5089377;28;20195;-80
2023/09/09 08:08:36;;;;;;;9.33;4.13;;;;;;;24.74;28.04;97352.53;5092607;28;20192;-85
2023/09/09 08:11:04;;;;;;;9.37;4.60;;;;;;;24.68;28.09;97347.81;5089351;28;20627;-80
2023/09/09 08:13:32;;;;;;;8.67;3.30;;;;;;;24.80;28.59;97341.34;5086778;28;20224;-74
2023/09/09 08:16:00;;;;;;;5.13;2.20;;;;;;;24.88;27.41;97350.22;5086975;28;20184;-73
2023/09/09 08:18:27;;;;;;;3.47;2.37;;;;;;;25.05;28.39;97335.28;5068489;28;20344;-74
2023/09/09 08:20:54;;;;;;;5.27;2.73;;;;;;;25.16;28.16;97352.78;5092221;28;20624;-77
2023/09/09 08:23:22;;;;;;;4.63;2.53;;;;;;;25.15;28.80;97330.75;5085538;28;20187;-75
2023/09/09 08:25:51;;;;;;;7.67;2.90;;;;;;;25.33;28.29;97350.09;5084795;28;20204;-82
2023/09/09 08:28:19;;;;;;;7.63;3.00;;;;;;;25.43;28.61;97350.88;5050246;28;20192;-81
2023/09/09 08:30:47;;;;;;;15.03;4.17;;;;;;;25.68;29.21;97350.06;5050248;28;20200;-81
2023/09/09 08:33:14;;;;;;;9.77;4.20;;;;;;;25.63;28.78;97351.53;5033209;28;20235;-80
2023/09/09 08:35:43;;;;;;;6.03;2.60;;;;;;;25.56;28.17;97346.00;5067539;28;20221;-81
2023/09/09 08:38:12;;;;;;;5.00;2.93;;;;;;;25.60;28.08;97339.41;5066733;28;20211;-79
2023/09/09 08:41:02;;;;;;;6.00;2.40;;;;;;;25.73;27.37;97350.44;5050974;28;20189;-75
2023/09/09 08:43:47;;;;;;;18.53;5.03;;;;;;;25.91;27.40;97342.41;5049475;28;20229;-78
2023/09/09 08:46:20;;;;;;;22.90;7.30;;;;;;;26.03;28.11;97350.94;5049705;28;20212;-74
2023/09/09 08:48:51;;;;;;;6.77;2.47;;;;;;;26.19;26.50;97337.78;5070620;28;20243;-74
2023/09/09 08:51:28;;;;;;;7.07;3.33;;;;;;;26.04;27.04;97334.00;5035716;28;20193;-80
2023/09/09 08:53:57;;;;;;;3.40;1.90;;;;;;;26.15;26.18;97331.94;5035608;28;20293;-82
2023/09/09 08:56:25;;;;;;;6.07;2.20;;;;;;;26.16;26.36;97348.69;5052157;28;20197;-76
2023/09/09 08:58:53;;;;;;;3.70;1.93;;;;;;;26.19;26.01;97340.44;5051580;28;20629;-73
2023/09/09 09:01:22;;;;;;;6.70;2.43;;;;;;;26.08;27.26;97338.88;5051206;28;20194;-72
2023/09/09 09:03:50;;;;;;;7.03;2.67;;;;;;;26.05;26.83;97335.69;5051009;28;20260;-73
2023/09/09 09:06:18;;;;;;;6.33;2.33;;;;;;;26.04;25.91;97339.31;5050551;28;20710;-80
2023/09/09 09:08:46;;;;;;;4.40;2.00;;;;;;;26.06;24.77;97353.28;5045734;28;20959;-73
2023/09/09 09:11:13;;;;;;;7.83;2.80;;;;;;;26.04;26.31;97344.63;5086657;28;20199;-80
2023/09/09 09:13:42;;;;;;;4.37;2.10;;;;;;;25.95;25.61;97342.91;5112080;28;20220;-76
2023/09/09 09:16:10;;;;;;;3.90;1.80;;;;;;;25.94;25.42;97328.00;5092442;28;20290;-76
2023/09/09 09:18:37;;;;;;;6.17;1.70;;;;;;;26.19;25.42;97349.25;5093740;28;20786;-78
2023/09/09 09:21:09;;;;;;;8.07;2.83;;;;;;;26.29;25.87;97344.63;5112924;28;20183;-75
2023/09/09 09:23:46;;;;;;;3.93;1.90;;;;;;;26.11;25.86;97343.06;5091691;28;20181;-81
2023/09/09 09:26:27;;;;;;;6.80;2.30;;;;;;;26.12;25.78;97345.53;5091974;28;20296;-73
2023/09/09 09:28:54;;;;;;;4.57;2.30;;;;;;;26.07;25.91;97323.94;5110572;28;20683;-74
2023/09/09 09:31:23;;;;;;;4.90;2.20;;;;;;;26.31;25.52;97336.50;5109891;28;20196;-77
2023/09/09 09:33:51;;;;;;;6.53;2.20;;;;;;;26.31;25.64;97325.88;5110310;28;20215;-75
2023/09/09 09:36:22;;;;;;;7.67;2.93;;;;;;;26.39;26.22;97328.56;5111164;28;20581;-76
2023/09/09 09:38:50;;;;;;;6.27;1.97;;;;;;;26.34;25.60;97309.59;5075212;28;20246;-76
2023/09/09 09:41:20;;;;;;;2.80;2.07;;;;;;;26.30;25.41;97325.03;5110242;28;20207;-76
2023/09/09 09:43:50;;;;;;;5.37;2.20;;;;;;;26.38;25.34;97337.50;5092343;28;20230;-75
2023/09/09 09:46:25;;;;;;;8.60;2.13;;;;;;;26.48;25.25;97331.06;5108772;28;20557;-75
2023/09/09 09:48:52;;;;;;;4.20;2.00;;;;;;;26.55;24.66;97307.34;5090394;28;20331;-75
2023/09/09 09:51:20;;;;;;;3.70;1.53;;;;;;;26.55;25.06;97317.97;5089618;28;20225;-76
2023/09/09 09:53:47;;;;;;;4.03;2.30;;;;;;;26.70;25.06;97318.16;5108199;28;20226;-73
2023/09/09 09:56:15;;;;;;;5.30;1.83;;;;;;;26.77;25.19;97312.06;5113326;28;20286;-75
2023/09/09 09:58:48;;;;;;;5.00;2.03;;;;;;;26.56;25.42;97266.50;5117168;28;20208;-74
2023/09/09 10:01:16;;;;;;;3.30;2.03;;;;;;;26.84;24.50;97294.47;5111161;28;20187;-77
2023/09/09 10:03:57;;;;;;;6.23;3.03;;;;;;;26.96;24.88;97303.78;5108980;28;20180;-74
2023/09/09 10:06:27;;;;;;;5.93;1.40;;;;;;;27.00;24.45;97307.78;5090217;28;20301;-76
2023/09/09 10:09:19;;;;;;;2.50;1.73;;;;;;;26.96;24.29;97295.81;5073330;28;20196;-78
2023/09/09 10:12:18;;;;;;;7.10;2.27;;;;;;;27.04;24.23;97309.09;5108154;28;20183;-79
2023/09/09 10:15:00;;;;;;;2.43;1.67;;;;;;;27.19;24.28;97302.13;5107391;28;20194;-75
2023/09/09 10:17:30;;;;;;;4.57;1.90;;;;;;;27.05;24.58;97299.31;5108070;28;20200;-76
2023/09/09 10:19:58;;;;;;;4.33;1.50;;;;;;;26.93;23.87;97296.16;5108058;28;20219;-74
2023/09/09 10:22:26;;;;;;;3.27;1.63;;;;;;;27.13;23.87;97307.28;5067856;28;20189;-82
2023/09/09 10:24:56;;;;;;;12.43;10.07;;;;;;;27.15;24.42;97300.81;5078554;28;20201;-76
2023/09/09 10:27:24;;;;;;;3.50;1.73;;;;;;;27.31;24.25;97299.94;5052857;28;20189;-75
2023/09/09 10:29:54;;;;;;;4.23;1.90;;;;;;;27.44;24.31;97278.19;5102942;28;20192;-76
2023/09/09 10:32:24;;;;;;;5.30;2.07;;;;;;;27.51;24.04;97295.16;5107564;28;20636;-75
2023/09/09 10:34:53;;;;;;;3.47;1.30;;;;;;;27.49;23.99;97281.19;5107543;28;20722;-81
2023/09/09 10:37:22;;;;;;;3.03;1.40;;;;;;;27.02;24.45;97268.56;5107433;28;20184;-73
2023/09/09 10:39:52;;;;;;;6.90;1.90;;;;;;;27.04;24.28;97285.16;5089239;28;20184;-77
2023/09/09 10:42:20;;;;;;;6.83;1.90;;;;;;;26.61;24.21;97280.13;5109304;28;20582;-74
2023/09/09 10:44:51;;;;;;;4.28;1.67;;;;;;;26.51;25.03;97274.97;5094084;28;20425;-77
2023/09/09 10:47:20;;;;;;;9.73;1.70;;;;;;;26.11;24.82;97272.16;5052024;28;20292;-79
2023/09/09 10:50:02;;;;;;;1.20;1.00;;;;;;;25.94;24.65;97274.91;5069116;28;20192;-78
2023/09/09 10:52:31;;;;;;;4.93;1.50;;;;;;;25.81;24.70;97262.91;5087843;28;20193;-76
2023/09/09 10:55:13;;;;;;;3.77;1.40;;;;;;;26.12;25.08;97273.84;5088039;28;20276;-77
2023/09/09 10:57:41;;;;;;;2.73;1.37;;;;;;;26.21;24.50;97248.16;5070377;28;20199;-77
2023/09/09 11:00:37;;;;;;;2.97;2.00;;;;;;;26.23;24.61;97270.06;5052337;28;20227;-76
2023/09/09 11:03:22;;;;;;;2.07;1.30;;;;;;;26.31;24.47;97256.81;5051883;28;20201;-76
2023/09/09 11:06:18;;;;;;;5.07;1.53;;;;;;;26.27;24.53;97260.78;5067186;28;20292;-78
2023/09/09 11:08:49;;;;;;;4.37;1.73;;;;;;;26.16;24.16;97264.56;5086633;28;20249;-78
2023/09/09 11:11:35;;;;;;;4.13;1.40;;;;;;;26.02;24.46;97261.66;5071063;28;20211;-78
2023/09/09 11:14:06;;;;;;;6.20;1.80;;;;;;;26.32;24.65;97256.66;5087412;28;20213;-77
2023/09/09 11:16:33;;;;;;;4.07;1.53;;;;;;;26.60;24.70;97252.69;5085550;28;20196;-75
2023/09/09 11:19:08;;;;;;;2.80;1.57;;;;;;;27.01;24.01;97258.09;5069193;28;20306;-74
2023/09/09 11:21:56;;;;;;;3.00;1.90;;;;;;;27.17;23.47;97247.44;5067545;28;20199;-75
2023/09/09 11:24:24;;;;;;;4.27;1.60;;;;;;;27.39;23.02;97241.44;5068748;28;20193;-74
2023/09/09 11:26:51;;;;;;;2.97;1.77;;;;;;;27.14;23.47;97200.72;5051648;28;20277;-75
2023/09/09 11:29:18;;;;;;;4.20;2.20;;;;;;;27.50;23.26;97235.78;5051759;28;20200;-74
2023/09/09 11:32:02;;;;;;;2.20;1.30;;;;;;;27.74;22.59;97248.19;5093466;28;20654;-75
2023/09/09 11:34:32;;;;;;;3.00;2.03;;;;;;;27.67;23.26;97242.72;5077564;28;21067;-75
2023/09/09 11:37:02;;;;;;;5.23;2.30;;;;;;;27.74;22.91;97243.69;5038174;28;20271;-77
2023/09/09 11:39:29;;;;;;;2.70;1.77;;;;;;;27.43;22.96;97234.78;5068908;28;20676;-75
2023/09/09 11:41:57;;;;;;;2.83;1.50;;;;;;;27.03;22.32;97238.31;5090367;28;20254;-74
2023/09/09 11:44:24;;;;;;;2.93;1.30;;;;;;;26.75;21.39;97239.63;5069766;28;20285;-77
2023/09/09 11:46:52;;;;;;;5.80;1.40;;;;;;;26.87;21.79;97238.34;5054021;28;20193;-73
2023/09/09 11:49:28;;;;;;;2.80;1.40;;;;;;;27.05;20.72;97236.31;5091694;28;20204;-78